Aviation Digital Data Service (ADDS)

Output produced by METARs form (1721 UTC 03 June 2020)
found at http://www.aviationweather.gov/metar/data/
 
METAR text: RJOW 031000Z 16008KT 9999 FEW030 SCT160 BKN/// 24/15 Q1004
Conditions at: RJOW (IWAMI , JP) observed 1000 UTC 03 June 2020
Temperature: 24.0°C (75°F)
Dewpoint: 15.0°C (59°F) [RH = 57%]
Pressure (altimeter): 29.65 inches Hg (1004.0 mb)
Winds: from the SSE (160 degrees) at 9 MPH (8 knots; 4.1 m/s)
Visibility: 6 or more miles (10+ km)
Ceiling: at least 12,000 feet AGL
Clouds: few clouds at 3000 feet AGL
scattered clouds at 16000 feet AGL
Weather: no significant weather observed at this time

METAR text: RJOW 030900Z 31003KT 9999 FEW030 SCT160 BKN/// 23/19 Q1004
Conditions at: RJOW (IWAMI , JP) observed 0900 UTC 03 June 2020
Temperature: 23.0°C (73°F)
Dewpoint: 19.0°C (66°F) [RH = 78%]
Pressure (altimeter): 29.65 inches Hg (1004.0 mb)
Winds: from the NW (310 degrees) at 3 MPH (3 knots; 1.5 m/s)
Visibility: 6 or more miles (10+ km)
Ceiling: at least 12,000 feet AGL
Clouds: few clouds at 3000 feet AGL
scattered clouds at 16000 feet AGL
Weather: no significant weather observed at this time

METAR text: RJOW 030800Z VRB02KT 9999 FEW030 SCT045 BKN170 23/19 Q1004
Conditions at: RJOW (IWAMI , JP) observed 0800 UTC 03 June 2020
Temperature: 23.0°C (73°F)
Dewpoint: 19.0°C (66°F) [RH = 78%]
Pressure (altimeter): 29.65 inches Hg (1004.0 mb)
Winds: variable direction winds at 2 MPH (2 knots; 1.0 m/s)
Visibility: 6 or more miles (10+ km)
Ceiling: 17000 feet AGL
Clouds: few clouds at 3000 feet AGL
scattered clouds at 4500 feet AGL
broken clouds at 17000 feet AGL
Weather: no significant weather observed at this time

METAR text: RJOW 030700Z 33005KT 9999 FEW030 BKN040 24/18 Q1004
Conditions at: RJOW (IWAMI , JP) observed 0700 UTC 03 June 2020
Temperature: 24.0°C (75°F)
Dewpoint: 18.0°C (64°F) [RH = 69%]
Pressure (altimeter): 29.65 inches Hg (1004.0 mb)
Winds: from the NNW (330 degrees) at 6 MPH (5 knots; 2.6 m/s)
Visibility: 6 or more miles (10+ km)
Ceiling: 4000 feet AGL
Clouds: few clouds at 3000 feet AGL
broken clouds at 4000 feet AGL
Weather: no significant weather observed at this time

METAR text: RJOW 030600Z VRB02KT 9999 FEW025 SCT030 BKN040 26/18 Q1004
Conditions at: RJOW (IWAMI , JP) observed 0600 UTC 03 June 2020
Temperature: 26.0°C (79°F)
Dewpoint: 18.0°C (64°F) [RH = 61%]
Pressure (altimeter): 29.65 inches Hg (1004.0 mb)
Winds: variable direction winds at 2 MPH (2 knots; 1.0 m/s)
Visibility: 6 or more miles (10+ km)
Ceiling: 4000 feet AGL
Clouds: few clouds at 2500 feet AGL
scattered clouds at 3000 feet AGL
broken clouds at 4000 feet AGL
Weather: no significant weather observed at this time

METAR text: RJOW 030500Z VRB02KT 9999 FEW030 BKN070 OVC150 25/18 Q1004
Conditions at: RJOW (IWAMI , JP) observed 0500 UTC 03 June 2020
Temperature: 25.0°C (77°F)
Dewpoint: 18.0°C (64°F) [RH = 65%]
Pressure (altimeter): 29.65 inches Hg (1004.0 mb)
Winds: variable direction winds at 2 MPH (2 knots; 1.0 m/s)
Visibility: 6 or more miles (10+ km)
Ceiling: 7000 feet AGL
Clouds: few clouds at 3000 feet AGL
broken clouds at 7000 feet AGL
overcast cloud deck at 15000 feet AGL
Weather: no significant weather observed at this time

METAR text: RJOW 030400Z 20005KT 160V230 9999 FEW025 SCT040 BKN070 25/17 Q1005
Conditions at: RJOW (IWAMI , JP) observed 0400 UTC 03 June 2020
Temperature: 25.0°C (77°F)
Dewpoint: 17.0°C (63°F) [RH = 61%]
Pressure (altimeter): 29.68 inches Hg (1005.0 mb)
Winds: from the SSW (200 degrees) at 6 MPH (5 knots; 2.6 m/s)
Visibility: 6 or more miles (10+ km)
Ceiling: 7000 feet AGL
Clouds: few clouds at 2500 feet AGL
scattered clouds at 4000 feet AGL
broken clouds at 7000 feet AGL
Weather: no significant weather observed at this time

METAR text: RJOW 030300Z VRB03KT 9999 FEW025 SCT040 BKN070 24/17 Q1005
Conditions at: RJOW (IWAMI , JP) observed 0300 UTC 03 June 2020
Temperature: 24.0°C (75°F)
Dewpoint: 17.0°C (63°F) [RH = 65%]
Pressure (altimeter): 29.68 inches Hg (1005.0 mb)
Winds: variable direction winds at 3 MPH (3 knots; 1.5 m/s)
Visibility: 6 or more miles (10+ km)
Ceiling: 7000 feet AGL
Clouds: few clouds at 2500 feet AGL
scattered clouds at 4000 feet AGL
broken clouds at 7000 feet AGL
Weather: no significant weather observed at this time

METAR text: RJOW 030200Z 30004KT 9999 FEW025 SCT040 BKN070 24/16 Q1006
Conditions at: RJOW (IWAMI , JP) observed 0200 UTC 03 June 2020
Temperature: 24.0°C (75°F)
Dewpoint: 16.0°C (61°F) [RH = 61%]
Pressure (altimeter): 29.70 inches Hg (1006.0 mb)
Winds: from the WNW (300 degrees) at 5 MPH (4 knots; 2.1 m/s)
Visibility: 6 or more miles (10+ km)
Ceiling: 7000 feet AGL
Clouds: few clouds at 2500 feet AGL
scattered clouds at 4000 feet AGL
broken clouds at 7000 feet AGL
Weather: no significant weather observed at this time

METAR text: RJOW 030100Z 16004KT 9999 FEW030 SCT045 BKN070 23/16 Q1006
Conditions at: RJOW (IWAMI , JP) observed 0100 UTC 03 June 2020
Temperature: 23.0°C (73°F)
Dewpoint: 16.0°C (61°F) [RH = 65%]
Pressure (altimeter): 29.70 inches Hg (1006.0 mb)
Winds: from the SSE (160 degrees) at 5 MPH (4 knots; 2.1 m/s)
Visibility: 6 or more miles (10+ km)
Ceiling: 7000 feet AGL
Clouds: few clouds at 3000 feet AGL
scattered clouds at 4500 feet AGL
broken clouds at 7000 feet AGL
Weather: no significant weather observed at this time

METAR text: RJOW 030000Z 16004KT 9999 FEW030 SCT050 BKN/// 22/15 Q1006
Conditions at: RJOW (IWAMI , JP) observed 0000 UTC 03 June 2020
Temperature: 22.0°C (72°F)
Dewpoint: 15.0°C (59°F) [RH = 65%]
Pressure (altimeter): 29.70 inches Hg (1006.0 mb)
Winds: from the SSE (160 degrees) at 5 MPH (4 knots; 2.1 m/s)
Visibility: 6 or more miles (10+ km)
Ceiling: at least 12,000 feet AGL
Clouds: few clouds at 3000 feet AGL
scattered clouds at 5000 feet AGL
Weather: no significant weather observed at this time

METAR text: RJOW 021000Z VRB02KT 9999 FEW050 SCT/// 20/17 Q1007
Conditions at: RJOW (IWAMI , JP) observed 1000 UTC 02 June 2020
Temperature: 20.0°C (68°F)
Dewpoint: 17.0°C (63°F) [RH = 83%]
Pressure (altimeter): 29.73 inches Hg (1007.0 mb)
Winds: variable direction winds at 2 MPH (2 knots; 1.0 m/s)
Visibility: 6 or more miles (10+ km)
Ceiling: at least 12,000 feet AGL
Clouds: few clouds at 5000 feet AGL
Weather: no significant weather observed at this time

METAR text: RJOW 020900Z 32004KT 290V360 9999 FEW035 21/17 Q1007
Conditions at: RJOW (IWAMI , JP) observed 0900 UTC 02 June 2020
Temperature: 21.0°C (70°F)
Dewpoint: 17.0°C (63°F) [RH = 78%]
Pressure (altimeter): 29.73 inches Hg (1007.0 mb)
Winds: from the NW (320 degrees) at 5 MPH (4 knots; 2.1 m/s)
Visibility: 6 or more miles (10+ km)
Ceiling: at least 12,000 feet AGL
Clouds: few clouds at 3500 feet AGL
Weather: no significant weather observed at this time

METAR text: RJOW 020800Z 31006KT 9999 FEW035 22/16 Q1007
Conditions at: RJOW (IWAMI , JP) observed 0800 UTC 02 June 2020
Temperature: 22.0°C (72°F)
Dewpoint: 16.0°C (61°F) [RH = 69%]
Pressure (altimeter): 29.73 inches Hg (1007.0 mb)
Winds: from the NW (310 degrees) at 7 MPH (6 knots; 3.1 m/s)
Visibility: 6 or more miles (10+ km)
Ceiling: at least 12,000 feet AGL
Clouds: few clouds at 3500 feet AGL
Weather: no significant weather observed at this time

METAR text: RJOW 020700Z 29011KT 9999 FEW030 SCT070 BKN/// 22/14 Q1008
Conditions at: RJOW (IWAMI , JP) observed 0700 UTC 02 June 2020
Temperature: 22.0°C (72°F)
Dewpoint: 14.0°C (57°F) [RH = 60%]
Pressure (altimeter): 29.76 inches Hg (1008.0 mb)
Winds: from the WNW (290 degrees) at 13 MPH (11 knots; 5.7 m/s)
Visibility: 6 or more miles (10+ km)
Ceiling: at least 12,000 feet AGL
Clouds: few clouds at 3000 feet AGL
scattered clouds at 7000 feet AGL
Weather: no significant weather observed at this time

METAR text: RJOW 020600Z 28014KT 9999 FEW030 BKN/// 23/16 Q1008
Conditions at: RJOW (IWAMI , JP) observed 0600 UTC 02 June 2020
Temperature: 23.0°C (73°F)
Dewpoint: 16.0°C (61°F) [RH = 65%]
Pressure (altimeter): 29.76 inches Hg (1008.0 mb)
Winds: from the W (280 degrees) at 16 MPH (14 knots; 7.2 m/s)
Visibility: 6 or more miles (10+ km)
Ceiling: at least 12,000 feet AGL
Clouds: few clouds at 3000 feet AGL
Weather: no significant weather observed at this time